General Aviation Weather

Text Reports

Enter one or more of the following location identifiers separated by a space:

Zip Code, Four-Character ICAO or Three-Character IATA airport codes.

METAR - Aviation Routine Weather Report
KIKW - Midland, Michigan
Updated at 8:33 AM GMT on April 25, 2015 (4:33 AM EDT):
METAR KIKW 250833Z AUTO 04003KT 10SM OVC100 02/M04 A2998 RMK AO2 T00161041
TAF - Terminal Area Forecast
KIKW - Midland, Michigan
Updated at 8:33 AM GMT on April 25, 2015 (4:33 AM EDT):
No TAF is currently available for this location.
Decoded:
No decoded TAF is available.
PIREP - Pilot Weather Report
KIKW - Midland, Michigan
Updated at 8:33 AM GMT on April 25, 2015 (4:33 AM EDT):
No PIREP is currently available for this location.
AIRMET - Airmens Meteorological Information
KIKW - Midland, Michigan
Updated at 8:33 AM GMT on April 25, 2015 (4:33 AM EDT):
No AIRMET is currently available for this location.
SIGMET - Significant Meteorological Information
KIKW - Midland, Michigan
Updated at 8:33 AM GMT on April 25, 2015 (4:33 AM EDT):
No SIGMET is currently available for this location.
NOTAM - Notice to Airmen
KIKW - Midland, Michigan
Updated at 8:33 AM GMT on April 25, 2015 (4:33 AM EDT):
No NOTAM is currently available for this location.
Forecast Area
KIKW - Midland, Michigan
Updated at 8:33 AM GMT on April 25, 2015 (4:33 AM EDT):
No NOTAM is currently available for this location.
Aviation Weather Maps